South Bloomfield, Ohio
Current Conditions -  °F | °C
As of 5:15 PM on Friday 24 Oct 2014 (Local Time) from KLCK Reporting Station
Clear Clear  
Wind Chill: 64°   Ceiling: Unl
Heat Index: 64°   Visibility: 10mi
Dew Point: 38°   Wind: 6mph
Humidity: 39%   Direction: 220°SW
Pressure: 30.01"   Gusts: NA
Location:  39.7281°N, 82.9134°W
Report Text: KLCK 242115Z AUTO 22005KT 10SM CLR 18/03 A3001 RMK AO2 T01750034
Loading
Personal Weather Stations






























Interactive Weather Map
Tropical Storm Tracking
New forecast layout! Learn more

10-Day Weather Forecast

Advertisements
Track Severe Weather on mobile